createdAt,value
2023-01-13T00:00:38.539Z,69.92
2023-01-13T00:03:05.346Z,70.98
2023-01-13T00:05:31.962Z,69.96
2023-01-13T00:07:58.511Z,69.88
2023-01-13T00:10:25.104Z,70.04
2023-01-13T00:12:53.573Z,70.36
2023-01-13T00:15:20.099Z,68.33
2023-01-13T00:17:48.817Z,67.63
2023-01-13T00:20:15.827Z,66.88
2023-01-13T00:22:42.354Z,66.58
2023-01-13T00:25:09.132Z,66.64
2023-01-13T00:27:35.962Z,66.49
2023-01-13T00:30:02.736Z,65.21
2023-01-13T00:32:36.513Z,66.22
2023-01-13T00:35:03.870Z,66.02
2023-01-13T00:37:30.434Z,66.13
2023-01-13T00:39:58.018Z,66.47
2023-01-13T00:42:43.358Z,67.70
2023-01-13T00:45:10.280Z,66.74
2023-01-13T00:47:36.820Z,67.31
2023-01-13T00:50:03.698Z,67.96
2023-01-13T00:52:32.287Z,68.28
2023-01-13T00:54:58.788Z,68.65
2023-01-13T00:57:25.298Z,68.54
2023-01-13T00:59:51.798Z,69.08
2023-01-13T01:02:18.346Z,69.02
2023-01-13T01:04:45.006Z,68.48
2023-01-13T01:07:11.523Z,68.86
2023-01-13T01:09:42.145Z,69.89
2023-01-13T01:12:08.706Z,68.16
2023-01-13T01:14:35.287Z,68.52
2023-01-13T01:17:01.951Z,69.08
2023-01-13T01:19:28.561Z,68.38
2023-01-13T01:21:55.157Z,69.22
2023-01-13T01:24:29.978Z,69.64
2023-01-13T01:26:56.601Z,68.58
2023-01-13T01:29:23.137Z,69.86
2023-01-13T01:31:49.754Z,69.60
2023-01-13T01:34:16.318Z,69.05
2023-01-13T01:36:42.979Z,69.30
2023-01-13T01:39:10.343Z,70.23
2023-01-13T01:41:37.339Z,70.54
2023-01-13T01:44:41.636Z,69.38
2023-01-13T01:47:17.519Z,70.35
2023-01-13T01:49:45.345Z,68.57
2023-01-13T01:52:14.493Z,69.85
2023-01-13T01:54:48.653Z,69.75
2023-01-13T01:57:20.792Z,69.82
2023-01-13T01:59:47.638Z,69.73
2023-01-13T02:02:14.363Z,68.00
2023-01-13T02:05:00.695Z,67.88
2023-01-13T02:07:30.640Z,67.74
2023-01-13T02:10:00.047Z,66.84
2023-01-13T02:12:30.591Z,66.89
2023-01-13T02:15:00.867Z,66.95
2023-01-13T02:17:40.549Z,67.32
2023-01-13T02:21:01.287Z,66.60
2023-01-13T02:24:31.448Z,66.32
2023-01-13T02:27:19.814Z,66.68
2023-01-13T02:30:27.020Z,66.79
2023-01-13T02:33:08.678Z,66.19
2023-01-13T02:35:49.825Z,66.92
2023-01-13T02:38:23.130Z,67.68
2023-01-13T02:41:37.520Z,67.73
2023-01-13T02:44:08.835Z,67.93
2023-01-13T02:46:49.012Z,68.37
2023-01-13T02:49:28.817Z,69.11
2023-01-13T02:52:03.335Z,68.36
2023-01-13T02:54:32.528Z,69.19
2023-01-13T02:57:01.123Z,69.06
2023-01-13T02:59:30.053Z,68.84
2023-01-13T03:01:58.029Z,68.21
2023-01-13T03:04:54.372Z,68.27
2023-01-13T03:07:44.670Z,67.28
2023-01-13T03:10:41.716Z,67.51
2023-01-13T03:13:27.004Z,67.25
2023-01-13T03:15:53.340Z,68.67
2023-01-13T03:18:45.212Z,67.86
2023-01-13T03:21:48.835Z,67.02
2023-01-13T03:24:53.033Z,67.60
2023-01-13T03:27:30.251Z,67.87
2023-01-13T03:30:07.854Z,67.88
2023-01-13T03:32:42.331Z,67.63
2023-01-13T03:35:30.866Z,68.21
2023-01-13T03:38:03.440Z,68.16
2023-01-13T03:40:34.438Z,69.41
2023-01-13T03:43:25.433Z,69.35
2023-01-13T03:45:57.378Z,70.13
2023-01-13T03:48:27.666Z,70.30
2023-01-13T03:50:58.614Z,69.58
2023-01-13T03:53:34.451Z,68.84
2023-01-13T03:56:11.449Z,69.80
2023-01-13T03:58:43.322Z,69.07
2023-01-13T04:01:21.420Z,69.81
2023-01-13T04:04:00.055Z,69.31
2023-01-13T04:07:08.361Z,69.25
2023-01-13T04:09:53.406Z,68.93
2023-01-13T04:12:48.693Z,68.76
2023-01-13T04:15:17.138Z,68.58
2023-01-13T04:17:43.662Z,68.05
2023-01-13T04:20:10.801Z,68.14
2023-01-13T04:22:37.219Z,67.65
2023-01-13T04:25:04.151Z,68.54
2023-01-13T04:27:30.865Z,67.93
2023-01-13T04:29:57.274Z,67.74
2023-01-13T04:32:23.718Z,67.63
2023-01-13T04:34:50.143Z,69.06
2023-01-13T04:37:16.558Z,69.27
2023-01-13T04:40:22.203Z,69.31
2023-01-13T04:42:48.608Z,67.95
2023-01-13T04:45:15.035Z,67.76
2023-01-13T04:47:41.929Z,69.76
2023-01-13T04:50:20.952Z,68.91
2023-01-13T04:52:48.208Z,68.74
2023-01-13T04:55:15.690Z,69.68
2023-01-13T04:57:42.175Z,68.70
2023-01-13T05:00:10.504Z,69.65
2023-01-13T05:02:36.991Z,68.29
2023-01-13T05:05:04.221Z,68.83
2023-01-13T05:07:30.893Z,67.93
2023-01-13T05:10:02.341Z,67.53
2023-01-13T05:12:47.478Z,68.49
2023-01-13T05:15:34.354Z,69.82
2023-01-13T05:18:01.208Z,69.14
2023-01-13T05:20:27.721Z,70.39
2023-01-13T05:23:15.788Z,69.53
2023-01-13T05:25:49.712Z,69.77
2023-01-13T05:28:16.159Z,70.19
2023-01-13T05:30:46.125Z,70.70
2023-01-13T05:33:14.817Z,69.33
2023-01-13T05:35:47.255Z,70.17
2023-01-13T05:38:14.119Z,71.34
2023-01-13T05:41:00.245Z,70.48
2023-01-13T05:43:27.785Z,71.46
2023-01-13T05:45:59.085Z,71.50
2023-01-13T05:48:36.888Z,71.85
2023-01-13T05:51:05.606Z,71.26
2023-01-13T05:53:35.817Z,71.22
2023-01-13T05:56:05.960Z,70.54
2023-01-13T05:58:32.390Z,70.50
2023-01-13T06:01:03.696Z,71.53
2023-01-13T06:03:30.207Z,70.71
2023-01-13T06:05:59.276Z,72.18
2023-01-13T06:08:25.951Z,71.90
2023-01-13T06:10:52.415Z,72.02
2023-01-13T06:13:19.138Z,72.28
2023-01-13T06:15:45.686Z,73.30
2023-01-13T06:18:12.244Z,72.70
2023-01-13T06:20:38.670Z,72.45
2023-01-13T06:23:09.662Z,73.14
2023-01-13T06:25:59.763Z,71.55
2023-01-13T06:28:27.833Z,72.69
2023-01-13T06:31:03.997Z,72.51
2023-01-13T06:34:31.109Z,72.27
2023-01-13T06:40:52.767Z,74.30
2023-01-13T06:43:19.373Z,73.26
2023-01-13T06:45:56.392Z,73.58
2023-01-13T06:48:25.889Z,73.94
2023-01-13T06:50:52.290Z,72.32
2023-01-13T06:53:18.993Z,73.99
2023-01-13T06:55:45.564Z,74.48
2023-01-13T06:58:20.119Z,74.97
2023-01-13T07:00:51.164Z,75.03
2023-01-13T07:03:19.291Z,73.63
2023-01-13T07:05:52.630Z,74.76
2023-01-13T07:08:19.318Z,74.87
2023-01-13T07:10:45.919Z,74.48
2023-01-13T07:13:31.111Z,75.11
2023-01-13T07:15:59.656Z,75.87
2023-01-13T07:18:28.351Z,76.32
2023-01-13T07:20:56.553Z,76.74
2023-01-13T07:23:23.451Z,74.58
2023-01-13T07:25:50.407Z,74.73
2023-01-13T07:28:17.054Z,74.71
2023-01-13T07:30:43.541Z,75.50
2023-01-13T07:33:09.932Z,75.60
2023-01-13T07:35:36.361Z,75.01
2023-01-13T07:38:03.006Z,75.19
2023-01-13T07:40:29.495Z,75.33
2023-01-13T07:43:14.610Z,75.46
2023-01-13T07:45:41.068Z,75.25
2023-01-13T07:48:07.521Z,75.20
2023-01-13T07:50:33.965Z,74.65
2023-01-13T07:53:03.476Z,74.58
2023-01-13T07:55:29.929Z,74.85
2023-01-13T07:57:56.372Z,73.29
2023-01-13T08:00:23.268Z,74.49
2023-01-13T08:02:49.690Z,74.12
2023-01-13T08:05:16.744Z,74.67
2023-01-13T08:07:43.112Z,73.72
2023-01-13T08:10:09.997Z,74.09
2023-01-13T08:12:56.289Z,72.86
2023-01-13T08:15:23.766Z,72.27
2023-01-13T08:17:50.183Z,71.56
2023-01-13T08:20:16.817Z,72.44
2023-01-13T08:22:44.260Z,73.06
2023-01-13T08:25:10.780Z,71.66
2023-01-13T08:27:37.276Z,72.10
2023-01-13T08:30:04.730Z,72.50
2023-01-13T08:32:31.171Z,72.00
2023-01-13T08:34:57.587Z,71.31
2023-01-13T08:37:23.991Z,71.68
2023-01-13T08:39:50.504Z,70.49
2023-01-13T08:42:16.889Z,70.07
2023-01-13T08:44:43.340Z,69.76
2023-01-13T08:47:09.793Z,70.88
2023-01-13T08:49:36.244Z,70.39
2023-01-13T08:52:02.948Z,70.72
2023-01-13T08:54:29.365Z,69.33
2023-01-13T08:56:55.781Z,69.47
2023-01-13T08:59:22.197Z,69.79
2023-01-13T09:01:48.803Z,69.21
2023-01-13T09:04:21.800Z,69.60
2023-01-13T09:06:49.152Z,69.35
2023-01-13T09:09:15.633Z,69.23
2023-01-13T09:12:02.412Z,70.42
2023-01-13T09:14:31.763Z,70.03
2023-01-13T09:16:59.166Z,69.74
2023-01-13T09:19:26.762Z,69.79
2023-01-13T09:21:54.223Z,69.99
2023-01-13T09:24:21.292Z,69.80
2023-01-13T09:26:47.958Z,69.16
2023-01-13T09:29:14.969Z,68.32
2023-01-13T09:31:44.093Z,69.01
2023-01-13T09:34:35.516Z,68.18
2023-01-13T09:37:03.307Z,68.21
2023-01-13T09:39:29.778Z,70.72
2023-01-13T09:42:20.270Z,70.45
2023-01-13T09:44:59.933Z,71.38
2023-01-13T09:47:34.873Z,72.58
2023-01-13T09:50:38.638Z,73.89
2023-01-13T09:53:10.262Z,74.47
2023-01-13T09:55:36.915Z,74.20
2023-01-13T09:58:16.684Z,74.02
2023-01-13T10:00:55.296Z,74.97
2023-01-13T10:03:30.235Z,74.20
2023-01-13T10:06:22.397Z,74.00
2023-01-13T10:08:49.453Z,71.99
2023-01-13T10:11:43.049Z,72.34
2023-01-13T10:14:19.619Z,71.54
2023-01-13T10:17:18.043Z,75.40
2023-01-13T10:20:01.553Z,77.79
2023-01-13T10:22:43.068Z,79.38
2023-01-13T10:25:27.393Z,81.43
2023-01-13T10:27:56.650Z,82.17
2023-01-13T10:30:31.449Z,77.68
2023-01-13T10:33:00.126Z,78.45
2023-01-13T10:35:52.487Z,76.61
2023-01-13T10:38:40.559Z,76.30
2023-01-13T10:41:36.076Z,76.67
2023-01-13T10:44:15.757Z,75.25
2023-01-13T10:47:30.613Z,74.54
2023-01-13T12:01:30.971Z,97.74
2023-01-13T12:04:08.082Z,99.85
2023-01-13T12:06:41.816Z,99.64
2023-01-13T12:09:36.536Z,100.00
2023-01-13T12:12:22.766Z,100.00
2023-01-13T12:15:20.390Z,100.00
2023-01-13T12:17:57.901Z,100.00
2023-01-13T12:20:42.999Z,100.00
2023-01-13T12:23:25.143Z,100.00
2023-01-13T12:25:58.150Z,100.00
2023-01-13T12:29:18.957Z,100.00
2023-01-13T12:31:48.944Z,100.00
2023-01-13T12:34:30.050Z,100.00
2023-01-13T12:37:21.637Z,100.00
2023-01-13T12:40:27.060Z,100.00
2023-01-13T12:43:22.180Z,100.00
2023-01-13T12:45:48.629Z,97.24
2023-01-13T12:48:46.341Z,95.56
2023-01-13T12:51:34.164Z,92.92
2023-01-13T12:54:05.502Z,92.54
2023-01-13T12:56:44.826Z,93.28
2023-01-13T12:59:19.404Z,90.88
2023-01-13T13:02:11.682Z,90.29
2023-01-13T13:04:51.872Z,89.99
2023-01-13T13:07:49.552Z,88.25
2023-01-13T13:10:38.868Z,88.33
2023-01-13T13:13:20.150Z,88.52
2023-01-13T13:15:51.617Z,89.86
2023-01-13T13:18:18.007Z,90.51
2023-01-13T13:21:08.595Z,90.02
2023-01-13T13:23:48.662Z,89.31
2023-01-13T13:26:38.545Z,91.02
2023-01-13T13:29:35.077Z,92.41
2023-01-13T13:32:17.612Z,92.77
2023-01-13T13:35:05.595Z,91.02
2023-01-13T13:37:32.055Z,92.54
2023-01-13T13:40:20.023Z,90.93
2023-01-13T13:43:16.161Z,92.08
2023-01-13T13:46:10.940Z,91.83
2023-01-13T13:48:37.514Z,91.81
2023-01-13T13:51:23.644Z,90.96
2023-01-13T13:54:00.180Z,90.29
2023-01-13T13:56:37.213Z,91.60
2023-01-13T13:59:03.744Z,91.15
2023-01-13T14:01:42.899Z,91.68
2023-01-13T14:04:15.645Z,91.51
2023-01-13T14:07:21.269Z,91.38
2023-01-13T14:09:54.861Z,91.12
2023-01-13T14:12:26.962Z,91.68
2023-01-13T14:14:57.529Z,90.86
2023-01-13T14:17:31.090Z,90.86
2023-01-13T14:20:02.469Z,90.09
2023-01-13T14:22:32.391Z,90.21
2023-01-13T14:24:58.907Z,92.21
2023-01-13T14:27:27.792Z,93.80
2023-01-13T14:30:12.328Z,94.38
2023-01-13T14:32:40.589Z,95.93
2023-01-13T14:35:16.206Z,94.00
2023-01-13T14:37:48.988Z,94.17
2023-01-13T14:40:45.614Z,93.30
2023-01-13T14:43:25.449Z,94.05
2023-01-13T14:46:00.618Z,93.94
2023-01-13T14:48:35.748Z,95.11
2023-01-13T14:51:06.579Z,94.26
2023-01-13T14:53:46.799Z,94.90
2023-01-13T14:56:42.707Z,94.44
2023-01-13T14:59:40.140Z,93.97
2023-01-13T15:02:24.736Z,94.43
2023-01-13T15:04:56.645Z,93.84
2023-01-13T15:07:26.696Z,93.94
2023-01-13T15:10:01.496Z,94.09
2023-01-13T15:12:39.239Z,93.85
2023-01-13T15:15:19.943Z,92.79
2023-01-13T15:17:49.160Z,93.37
2023-01-13T15:20:17.048Z,92.73
2023-01-13T15:22:43.435Z,93.08
2023-01-13T15:25:10.307Z,92.90
2023-01-13T15:27:52.421Z,93.12
2023-01-13T15:30:22.415Z,94.48
2023-01-13T15:32:52.826Z,93.02
2023-01-13T15:35:21.367Z,94.00
2023-01-13T15:37:49.041Z,93.75
2023-01-13T15:40:31.836Z,94.21
2023-01-13T15:43:17.998Z,94.60
2023-01-13T15:46:04.546Z,94.66
2023-01-13T15:48:32.793Z,93.90
2023-01-13T15:51:00.498Z,94.14
2023-01-13T15:53:36.885Z,93.38
2023-01-13T15:56:07.681Z,93.49
2023-01-13T15:58:34.175Z,93.43
2023-01-13T16:01:00.662Z,93.04
2023-01-13T16:03:27.466Z,93.07
2023-01-13T16:05:57.017Z,92.98
2023-01-13T16:08:23.585Z,92.79
2023-01-13T16:10:50.572Z,93.08
2023-01-13T16:13:17.883Z,92.49
2023-01-13T16:15:47.960Z,92.59
2023-01-13T16:18:24.314Z,92.29
2023-01-13T16:20:53.414Z,92.23
2023-01-13T16:23:22.734Z,91.48
2023-01-13T16:25:50.305Z,91.36
2023-01-13T16:28:20.964Z,96.72
2023-01-13T16:30:48.327Z,100.00
2023-01-13T16:33:15.004Z,100.00
2023-01-13T16:36:10.919Z,100.00
2023-01-13T16:38:31.512Z,100.00
2023-01-13T16:41:01.231Z,100.00
2023-01-13T16:43:28.938Z,100.00
2023-01-13T16:45:55.575Z,100.00
2023-01-13T16:48:22.813Z,100.00
2023-01-13T16:50:49.658Z,100.00
2023-01-13T16:53:16.313Z,100.00
2023-01-13T16:55:44.064Z,100.00
2023-01-13T16:58:19.947Z,100.00
2023-01-13T17:00:48.096Z,100.00
2023-01-13T17:03:17.895Z,100.00
2023-01-13T17:05:47.742Z,100.00
2023-01-13T17:08:17.598Z,100.00
2023-01-13T17:10:51.035Z,100.00
2023-01-13T17:13:19.187Z,100.00
2023-01-13T17:15:46.118Z,100.00
2023-01-13T17:18:13.684Z,100.00
2023-01-13T17:20:40.735Z,100.00
2023-01-13T17:23:07.206Z,100.00
2023-01-13T17:25:33.737Z,100.00
2023-01-13T17:28:03.783Z,100.00
2023-01-13T17:30:32.379Z,100.00
2023-01-13T17:33:00.163Z,100.00
2023-01-13T17:35:27.707Z,100.00
2023-01-13T17:37:59.435Z,100.00
2023-01-13T17:40:37.247Z,100.00
2023-01-13T17:43:06.687Z,100.00
2023-01-13T17:45:33.427Z,100.00
2023-01-13T17:48:00.023Z,100.00
2023-01-13T17:50:31.056Z,100.00
2023-01-13T17:52:59.599Z,100.00
2023-01-13T17:55:26.232Z,100.00
2023-01-13T17:57:52.895Z,100.00
2023-01-13T18:00:20.449Z,100.00
2023-01-13T18:02:48.180Z,100.00
2023-01-13T18:05:16.023Z,100.00
2023-01-13T18:07:42.645Z,100.00
2023-01-13T18:10:11.264Z,100.00
2023-01-13T18:12:48.045Z,100.00
2023-01-13T18:15:20.461Z,100.00
2023-01-13T18:18:40.506Z,100.00
2023-01-13T18:21:43.421Z,100.00
2023-01-13T18:24:33.230Z,100.00
2023-01-13T18:27:22.601Z,100.00
2023-01-13T18:29:59.354Z,100.00
2023-01-13T18:32:32.691Z,100.00
2023-01-13T18:35:05.735Z,100.00
2023-01-13T18:37:35.880Z,100.00
2023-01-13T18:40:13.703Z,100.00
2023-01-13T18:42:54.306Z,100.00
